Aérodrome :
LOGIN :

S'inscrire | Disclaimer

   EN    FR    IT 

 










Légende :    VFR   VFR Marginal   IFR   IFR Intensif   IFR Très Intensif
Visi : 
Plafond : 
>= 8 km
>= 3000ft
5 à 8 km
1000 à 3000 ft
1500m à 5 km
500 à 1000 ft
800 à 1500m
200 à 500 ft
< 800m
< 200 ft
Symboles :   Orages  Brouillard  Fortes neiges  Fortes précipitations  Vent > 20 kt
SIGMETs :   Divers  Orages  Givrage  Turbulence  Onde Orograph.  Cendres Volcan.







- Altitude de l'aérodrome : 17 ft
- Code IATA : CPH


EKCH - København - Kastrup (Copenhagen)

DERNIER METAR :
  • 171620Z 22001KT 9999 FEW031 BKN034 01/M03 Q1022 NOSIG

METARs EXPIRÉS :
  • 171550Z 25001KT 9999 FEW031 BKN037 01/M03 Q1022 NOSIG
  • 171520Z 27001KT 9999 BKN034 01/M03 Q1022 NOSIG
  • 171420Z 29001KT 9999 BKN028 02/M03 Q1021 NOSIG
  • 171350Z 28002KT 9999 OVC027 02/M03 Q1021 NOSIG
  • 171320Z 28001KT 9999 OVC027 02/M03 Q1021 NOSIG

TAF TAF EKCH
Valide du 17 à 12h jusqu'au 18 à 12h UTC


171054Z 1712/1812 13005KT 9999 BKN030
TEMPO 1807/1812 BKN010
BECMG 1810/1812 14012KT
Pas de NOTAMs connus pour ce terrain.



MET'MAP, la Météo Aéronautique d'un coup d'oeil ! - Copyright ORBIFLY Décembre 2007 - Disclaimer

ORBIFLY MET'MAP TEAM :

Programmation & Développement : Alexandra Zaïnal
Conception & Développement : Baudouin d'Aumeries
Co-Programmation & Développement : Marc-Olivier Méhu
Soutien technique & logistique : Manuel Goepfert

Contact : metmap@orbifly.com




SOURCES & CREDITS :

   NOAA